RRL weather

Merrill Municipal Airport
Merrill, Wisconsin, United States

Public forecast

Using degrees Fahrenheit for public forecast. Weather courtesy of forecast.io.

Current aviation weather report (METAR) for Merrill Municipal Airport

Retrieved 2020/02/18 21:35 UTC (0 seconds ago):

KRRL 182135Z AUTO 29013G19KT 10SM SCT039 M04/M11 A3009 RMK AO2 T10381111 TSNO

Closest aviation forecast (TAF) to Merrill Municipal Airport

Forecast is more than 6 hours old.

Closest forecast is Wausau Downtown Airport, 16.8 nm (31.1 km) SSE. Retrieved 2020/02/18 12:27 UTC (9 hours ago):

TAF KAUW 181125Z 1812/1912 32013G20KT P6SM -SHSN BKN015 BKN025 TEMPO 1813/1815 SCT025 FM181500 30014G23KT P6SM BKN020 BKN035 FM182000 29014G23KT P6SM BKN035 FM190000 30010G16KT P6SM SCT030 FM190200 30007KT P6SM SKC